sensor_id;sensor_type;location;lat;lon;timestamp;P1;durP1;ratioP1;P2;durP2;ratioP2
50781;SDS011;36749;37.428;-121.972;2023-08-30T00:00:57;43.53;;;7.68;;
50781;SDS011;36749;37.428;-121.972;2023-08-30T00:03:23;47.92;;;8.50;;
50781;SDS011;36749;37.428;-121.972;2023-08-30T00:05:49;21.00;;;7.03;;
50781;SDS011;36749;37.428;-121.972;2023-08-30T00:08:16;17.60;;;5.50;;
50781;SDS011;36749;37.428;-121.972;2023-08-30T00:10:45;15.13;;;6.03;;
50781;SDS011;36749;37.428;-121.972;2023-08-30T00:13:12;20.83;;;6.40;;
50781;SDS011;36749;37.428;-121.972;2023-08-30T00:15:39;21.00;;;6.57;;
50781;SDS011;36749;37.428;-121.972;2023-08-30T00:18:05;16.23;;;5.93;;
50781;SDS011;36749;37.428;-121.972;2023-08-30T00:20:31;16.05;;;6.00;;
50781;SDS011;36749;37.428;-121.972;2023-08-30T00:22:57;17.00;;;5.75;;
50781;SDS011;36749;37.428;-121.972;2023-08-30T00:25:24;13.52;;;6.22;;
50781;SDS011;36749;37.428;-121.972;2023-08-30T00:27:50;14.70;;;6.28;;
50781;SDS011;36749;37.428;-121.972;2023-08-30T00:30:16;14.50;;;6.05;;
50781;SDS011;36749;37.428;-121.972;2023-08-30T00:32:42;23.08;;;6.65;;
50781;SDS011;36749;37.428;-121.972;2023-08-30T00:35:10;18.23;;;7.22;;
50781;SDS011;36749;37.428;-121.972;2023-08-30T00:37:36;14.27;;;6.35;;
50781;SDS011;36749;37.428;-121.972;2023-08-30T00:40:02;18.35;;;6.70;;
50781;SDS011;36749;37.428;-121.972;2023-08-30T00:42:28;14.82;;;6.32;;
50781;SDS011;36749;37.428;-121.972;2023-08-30T00:44:55;17.85;;;6.35;;
50781;SDS011;36749;37.428;-121.972;2023-08-30T00:47:21;16.52;;;6.43;;
50781;SDS011;36749;37.428;-121.972;2023-08-30T00:49:47;17.63;;;6.47;;
50781;SDS011;36749;37.428;-121.972;2023-08-30T00:52:13;17.92;;;6.65;;
50781;SDS011;36749;37.428;-121.972;2023-08-30T00:54:39;13.98;;;5.90;;
50781;SDS011;36749;37.428;-121.972;2023-08-30T00:57:06;13.73;;;6.15;;
50781;SDS011;36749;37.428;-121.972;2023-08-30T00:59:33;34.75;;;7.68;;
50781;SDS011;36749;37.428;-121.972;2023-08-30T01:02:00;22.65;;;6.50;;
50781;SDS011;36749;37.428;-121.972;2023-08-30T01:04:27;17.75;;;6.43;;
50781;SDS011;36749;37.428;-121.972;2023-08-30T01:06:53;23.08;;;7.40;;
50781;SDS011;36749;37.428;-121.972;2023-08-30T01:09:20;14.65;;;6.28;;
50781;SDS011;36749;37.428;-121.972;2023-08-30T01:15:15;15.15;;;5.50;;
50781;SDS011;36749;37.428;-121.972;2023-08-30T01:17:19;17.08;;;6.07;;
50781;SDS011;36749;37.428;-121.972;2023-08-30T01:25:12;15.90;;;6.20;;
50781;SDS011;36749;37.428;-121.972;2023-08-30T01:27:48;15.35;;;6.28;;
50781;SDS011;36749;37.428;-121.972;2023-08-30T01:30:16;25.05;;;6.63;;
50781;SDS011;36749;37.428;-121.972;2023-08-30T01:32:43;18.27;;;6.32;;
50781;SDS011;36749;37.428;-121.972;2023-08-30T01:35:11;42.13;;;8.68;;
50781;SDS011;36749;37.428;-121.972;2023-08-30T01:37:43;19.88;;;6.72;;
50781;SDS011;36749;37.428;-121.972;2023-08-30T01:40:13;22.95;;;6.82;;
50781;SDS011;36749;37.428;-121.972;2023-08-30T01:42:40;17.83;;;7.25;;
50781;SDS011;36749;37.428;-121.972;2023-08-30T01:45:10;18.10;;;6.43;;
50781;SDS011;36749;37.428;-121.972;2023-08-30T01:47:38;16.85;;;6.15;;
50781;SDS011;36749;37.428;-121.972;2023-08-30T01:50:05;20.83;;;6.45;;
50781;SDS011;36749;37.428;-121.972;2023-08-30T01:52:32;20.70;;;6.88;;
50781;SDS011;36749;37.428;-121.972;2023-08-30T01:54:58;13.20;;;6.25;;
50781;SDS011;36749;37.428;-121.972;2023-08-30T01:57:26;21.45;;;6.65;;
50781;SDS011;36749;37.428;-121.972;2023-08-30T01:59:52;19.27;;;5.90;;
50781;SDS011;36749;37.428;-121.972;2023-08-30T02:02:18;17.48;;;5.90;;
50781;SDS011;36749;37.428;-121.972;2023-08-30T02:04:44;17.63;;;6.25;;
50781;SDS011;36749;37.428;-121.972;2023-08-30T02:07:13;18.38;;;6.80;;
50781;SDS011;36749;37.428;-121.972;2023-08-30T02:12:27;19.95;;;6.13;;
50781;SDS011;36749;37.428;-121.972;2023-08-30T02:15:00;18.67;;;6.03;;
50781;SDS011;36749;37.428;-121.972;2023-08-30T02:17:28;15.60;;;6.35;;
50781;SDS011;36749;37.428;-121.972;2023-08-30T02:19:55;18.70;;;6.53;;
50781;SDS011;36749;37.428;-121.972;2023-08-30T02:22:21;21.60;;;6.85;;
50781;SDS011;36749;37.428;-121.972;2023-08-30T02:24:47;21.10;;;6.60;;
50781;SDS011;36749;37.428;-121.972;2023-08-30T02:27:14;17.63;;;6.35;;
50781;SDS011;36749;37.428;-121.972;2023-08-30T02:29:40;19.35;;;7.00;;
50781;SDS011;36749;37.428;-121.972;2023-08-30T02:32:06;17.15;;;6.40;;
50781;SDS011;36749;37.428;-121.972;2023-08-30T02:34:35;22.42;;;6.80;;
50781;SDS011;36749;37.428;-121.972;2023-08-30T02:37:02;20.10;;;6.93;;
50781;SDS011;36749;37.428;-121.972;2023-08-30T02:39:28;17.90;;;7.30;;
50781;SDS011;36749;37.428;-121.972;2023-08-30T02:41:55;26.10;;;7.45;;
50781;SDS011;36749;37.428;-121.972;2023-08-30T02:44:21;24.65;;;7.88;;
50781;SDS011;36749;37.428;-121.972;2023-08-30T02:46:47;21.58;;;7.88;;
50781;SDS011;36749;37.428;-121.972;2023-08-30T02:49:13;19.52;;;7.47;;
50781;SDS011;36749;37.428;-121.972;2023-08-30T02:51:39;19.80;;;6.63;;
50781;SDS011;36749;37.428;-121.972;2023-08-30T02:54:05;22.75;;;7.78;;
50781;SDS011;36749;37.428;-121.972;2023-08-30T02:56:32;19.30;;;6.97;;
50781;SDS011;36749;37.428;-121.972;2023-08-30T02:58:58;26.63;;;7.95;;
50781;SDS011;36749;37.428;-121.972;2023-08-30T03:01:27;24.10;;;7.13;;
50781;SDS011;36749;37.428;-121.972;2023-08-30T03:03:54;23.40;;;6.90;;
50781;SDS011;36749;37.428;-121.972;2023-08-30T03:06:20;19.25;;;7.30;;
50781;SDS011;36749;37.428;-121.972;2023-08-30T03:08:46;25.52;;;8.40;;
50781;SDS011;36749;37.428;-121.972;2023-08-30T03:11:12;22.27;;;7.55;;
50781;SDS011;36749;37.428;-121.972;2023-08-30T03:13:39;21.00;;;6.45;;
50781;SDS011;36749;37.428;-121.972;2023-08-30T03:16:15;21.77;;;7.55;;
50781;SDS011;36749;37.428;-121.972;2023-08-30T03:18:42;28.42;;;8.93;;
50781;SDS011;36749;37.428;-121.972;2023-08-30T03:21:09;28.30;;;8.15;;
50781;SDS011;36749;37.428;-121.972;2023-08-30T03:23:35;22.77;;;7.70;;
50781;SDS011;36749;37.428;-121.972;2023-08-30T03:26:14;19.42;;;7.38;;
50781;SDS011;36749;37.428;-121.972;2023-08-30T03:28:42;24.35;;;8.23;;
50781;SDS011;36749;37.428;-121.972;2023-08-30T03:31:12;23.20;;;7.80;;
50781;SDS011;36749;37.428;-121.972;2023-08-30T03:33:39;22.02;;;7.63;;
50781;SDS011;36749;37.428;-121.972;2023-08-30T03:36:10;23.83;;;8.52;;
50781;SDS011;36749;37.428;-121.972;2023-08-30T03:38:37;19.67;;;7.70;;
50781;SDS011;36749;37.428;-121.972;2023-08-30T03:41:03;23.83;;;7.93;;
50781;SDS011;36749;37.428;-121.972;2023-08-30T03:43:32;19.85;;;7.65;;
50781;SDS011;36749;37.428;-121.972;2023-08-30T03:45:59;23.38;;;8.65;;
50781;SDS011;36749;37.428;-121.972;2023-08-30T03:48:28;24.05;;;7.25;;
50781;SDS011;36749;37.428;-121.972;2023-08-30T03:50:55;21.27;;;7.75;;
50781;SDS011;36749;37.428;-121.972;2023-08-30T03:53:21;20.80;;;7.85;;
50781;SDS011;36749;37.428;-121.972;2023-08-30T03:55:48;21.92;;;7.55;;
50781;SDS011;36749;37.428;-121.972;2023-08-30T03:58:15;25.58;;;7.88;;
50781;SDS011;36749;37.428;-121.972;2023-08-30T04:00:41;22.20;;;7.78;;
50781;SDS011;36749;37.428;-121.972;2023-08-30T04:03:08;20.63;;;7.82;;
50781;SDS011;36749;37.428;-121.972;2023-08-30T04:05:35;24.13;;;8.75;;
50781;SDS011;36749;37.428;-121.972;2023-08-30T04:08:02;21.17;;;7.75;;
50781;SDS011;36749;37.428;-121.972;2023-08-30T04:10:34;23.75;;;8.07;;
50781;SDS011;36749;37.428;-121.972;2023-08-30T04:13:01;24.23;;;9.13;;
50781;SDS011;36749;37.428;-121.972;2023-08-30T04:15:27;23.17;;;7.22;;
50781;SDS011;36749;37.428;-121.972;2023-08-30T04:17:54;22.13;;;7.10;;
50781;SDS011;36749;37.428;-121.972;2023-08-30T04:20:20;25.45;;;7.32;;
50781;SDS011;36749;37.428;-121.972;2023-08-30T04:22:46;23.70;;;7.20;;
50781;SDS011;36749;37.428;-121.972;2023-08-30T04:25:12;24.15;;;7.80;;
50781;SDS011;36749;37.428;-121.972;2023-08-30T04:27:38;24.80;;;8.13;;
50781;SDS011;36749;37.428;-121.972;2023-08-30T04:30:05;21.75;;;7.18;;
50781;SDS011;36749;37.428;-121.972;2023-08-30T04:32:31;19.65;;;7.68;;
50781;SDS011;36749;37.428;-121.972;2023-08-30T04:34:57;22.38;;;8.25;;
50781;SDS011;36749;37.428;-121.972;2023-08-30T04:37:24;20.33;;;7.55;;
50781;SDS011;36749;37.428;-121.972;2023-08-30T04:39:50;26.75;;;8.93;;
50781;SDS011;36749;37.428;-121.972;2023-08-30T04:42:16;25.02;;;7.70;;
50781;SDS011;36749;37.428;-121.972;2023-08-30T04:44:42;24.15;;;8.50;;
50781;SDS011;36749;37.428;-121.972;2023-08-30T04:47:08;23.38;;;8.02;;
50781;SDS011;36749;37.428;-121.972;2023-08-30T04:49:35;33.10;;;8.25;;
50781;SDS011;36749;37.428;-121.972;2023-08-30T04:52:01;24.88;;;8.70;;
50781;SDS011;36749;37.428;-121.972;2023-08-30T04:54:27;25.88;;;9.20;;
50781;SDS011;36749;37.428;-121.972;2023-08-30T04:56:53;20.40;;;8.10;;
50781;SDS011;36749;37.428;-121.972;2023-08-30T04:59:19;19.27;;;7.35;;
50781;SDS011;36749;37.428;-121.972;2023-08-30T05:01:46;25.67;;;9.02;;
50781;SDS011;36749;37.428;-121.972;2023-08-30T05:04:12;23.38;;;8.25;;
50781;SDS011;36749;37.428;-121.972;2023-08-30T05:06:38;24.73;;;8.68;;
50781;SDS011;36749;37.428;-121.972;2023-08-30T05:09:04;23.88;;;9.48;;
50781;SDS011;36749;37.428;-121.972;2023-08-30T05:11:31;25.45;;;9.10;;
50781;SDS011;36749;37.428;-121.972;2023-08-30T05:13:57;23.70;;;9.57;;
50781;SDS011;36749;37.428;-121.972;2023-08-30T05:16:24;21.92;;;9.27;;
50781;SDS011;36749;37.428;-121.972;2023-08-30T05:18:50;21.92;;;9.93;;
50781;SDS011;36749;37.428;-121.972;2023-08-30T05:21:16;23.67;;;9.18;;
50781;SDS011;36749;37.428;-121.972;2023-08-30T05:23:43;22.30;;;9.40;;
50781;SDS011;36749;37.428;-121.972;2023-08-30T05:26:10;23.38;;;8.73;;
50781;SDS011;36749;37.428;-121.972;2023-08-30T05:28:39;28.23;;;8.82;;
50781;SDS011;36749;37.428;-121.972;2023-08-30T05:31:05;23.65;;;8.73;;
50781;SDS011;36749;37.428;-121.972;2023-08-30T05:33:49;24.52;;;8.95;;
50781;SDS011;36749;37.428;-121.972;2023-08-30T05:36:16;20.02;;;9.10;;
50781;SDS011;36749;37.428;-121.972;2023-08-30T05:38:43;27.17;;;8.85;;
50781;SDS011;36749;37.428;-121.972;2023-08-30T05:41:09;24.33;;;8.55;;
50781;SDS011;36749;37.428;-121.972;2023-08-30T05:43:36;23.55;;;8.93;;
50781;SDS011;36749;37.428;-121.972;2023-08-30T05:46:02;23.45;;;8.70;;
50781;SDS011;36749;37.428;-121.972;2023-08-30T05:48:28;29.52;;;9.80;;
50781;SDS011;36749;37.428;-121.972;2023-08-30T05:50:55;26.05;;;9.40;;
50781;SDS011;36749;37.428;-121.972;2023-08-30T05:53:22;26.35;;;9.45;;
50781;SDS011;36749;37.428;-121.972;2023-08-30T05:55:48;28.35;;;9.00;;
50781;SDS011;36749;37.428;-121.972;2023-08-30T05:58:15;24.42;;;9.48;;
50781;SDS011;36749;37.428;-121.972;2023-08-30T06:00:42;19.23;;;8.60;;
50781;SDS011;36749;37.428;-121.972;2023-08-30T06:03:09;21.27;;;8.13;;
50781;SDS011;36749;37.428;-121.972;2023-08-30T06:05:36;26.85;;;9.70;;
50781;SDS011;36749;37.428;-121.972;2023-08-30T06:08:02;21.80;;;8.35;;
50781;SDS011;36749;37.428;-121.972;2023-08-30T06:10:29;24.95;;;9.18;;
50781;SDS011;36749;37.428;-121.972;2023-08-30T06:12:55;24.55;;;8.65;;
50781;SDS011;36749;37.428;-121.972;2023-08-30T06:15:21;22.30;;;8.98;;
50781;SDS011;36749;37.428;-121.972;2023-08-30T06:17:47;22.67;;;9.07;;
50781;SDS011;36749;37.428;-121.972;2023-08-30T06:20:15;26.75;;;9.35;;
50781;SDS011;36749;37.428;-121.972;2023-08-30T06:22:41;26.13;;;9.13;;
50781;SDS011;36749;37.428;-121.972;2023-08-30T06:25:08;21.08;;;8.00;;
50781;SDS011;36749;37.428;-121.972;2023-08-30T06:27:41;29.30;;;8.18;;
50781;SDS011;36749;37.428;-121.972;2023-08-30T06:30:11;23.80;;;8.50;;
50781;SDS011;36749;37.428;-121.972;2023-08-30T06:32:37;23.65;;;9.30;;
50781;SDS011;36749;37.428;-121.972;2023-08-30T06:35:04;23.10;;;8.40;;
50781;SDS011;36749;37.428;-121.972;2023-08-30T06:37:30;21.40;;;8.52;;
50781;SDS011;36749;37.428;-121.972;2023-08-30T06:39:56;20.90;;;8.50;;
50781;SDS011;36749;37.428;-121.972;2023-08-30T06:42:22;23.10;;;8.32;;
50781;SDS011;36749;37.428;-121.972;2023-08-30T06:45:08;22.85;;;9.52;;
50781;SDS011;36749;37.428;-121.972;2023-08-30T06:47:35;22.08;;;8.25;;
50781;SDS011;36749;37.428;-121.972;2023-08-30T06:50:01;23.00;;;8.68;;
50781;SDS011;36749;37.428;-121.972;2023-08-30T06:52:29;28.02;;;9.40;;
50781;SDS011;36749;37.428;-121.972;2023-08-30T06:54:55;20.50;;;8.65;;
50781;SDS011;36749;37.428;-121.972;2023-08-30T06:57:21;25.20;;;8.45;;
50781;SDS011;36749;37.428;-121.972;2023-08-30T06:59:47;22.52;;;8.55;;
50781;SDS011;36749;37.428;-121.972;2023-08-30T07:02:13;21.30;;;7.75;;
50781;SDS011;36749;37.428;-121.972;2023-08-30T07:04:39;24.50;;;9.20;;
50781;SDS011;36749;37.428;-121.972;2023-08-30T07:07:06;25.08;;;8.63;;
50781;SDS011;36749;37.428;-121.972;2023-08-30T07:09:32;21.13;;;8.50;;
50781;SDS011;36749;37.428;-121.972;2023-08-30T07:11:58;23.73;;;8.80;;
50781;SDS011;36749;37.428;-121.972;2023-08-30T07:14:25;24.42;;;8.70;;
50781;SDS011;36749;37.428;-121.972;2023-08-30T07:16:51;23.95;;;8.65;;
50781;SDS011;36749;37.428;-121.972;2023-08-30T07:19:17;22.00;;;7.93;;
50781;SDS011;36749;37.428;-121.972;2023-08-30T07:21:44;26.42;;;8.65;;
50781;SDS011;36749;37.428;-121.972;2023-08-30T07:24:10;22.98;;;9.00;;
50781;SDS011;36749;37.428;-121.972;2023-08-30T07:26:36;21.92;;;8.95;;
50781;SDS011;36749;37.428;-121.972;2023-08-30T07:29:03;22.45;;;8.02;;
50781;SDS011;36749;37.428;-121.972;2023-08-30T07:31:30;25.30;;;8.90;;
50781;SDS011;36749;37.428;-121.972;2023-08-30T07:33:57;24.13;;;8.55;;
50781;SDS011;36749;37.428;-121.972;2023-08-30T07:36:25;19.42;;;8.80;;
50781;SDS011;36749;37.428;-121.972;2023-08-30T07:38:53;25.75;;;9.73;;
50781;SDS011;36749;37.428;-121.972;2023-08-30T07:41:20;26.77;;;10.52;;
50781;SDS011;36749;37.428;-121.972;2023-08-30T07:43:46;24.38;;;9.80;;
50781;SDS011;36749;37.428;-121.972;2023-08-30T07:46:12;22.92;;;9.70;;
50781;SDS011;36749;37.428;-121.972;2023-08-30T07:48:38;25.33;;;9.25;;
50781;SDS011;36749;37.428;-121.972;2023-08-30T07:51:05;21.70;;;9.18;;
50781;SDS011;36749;37.428;-121.972;2023-08-30T07:53:31;23.98;;;9.55;;
50781;SDS011;36749;37.428;-121.972;2023-08-30T07:55:57;25.35;;;9.25;;
50781;SDS011;36749;37.428;-121.972;2023-08-30T07:58:23;22.48;;;8.65;;
50781;SDS011;36749;37.428;-121.972;2023-08-30T08:00:50;24.17;;;9.05;;
50781;SDS011;36749;37.428;-121.972;2023-08-30T08:03:17;29.13;;;8.63;;
50781;SDS011;36749;37.428;-121.972;2023-08-30T08:05:45;26.00;;;8.60;;
50781;SDS011;36749;37.428;-121.972;2023-08-30T08:08:11;22.33;;;8.63;;
50781;SDS011;36749;37.428;-121.972;2023-08-30T08:10:37;25.67;;;8.60;;
50781;SDS011;36749;37.428;-121.972;2023-08-30T08:13:03;26.77;;;8.68;;
50781;SDS011;36749;37.428;-121.972;2023-08-30T08:15:30;26.85;;;9.63;;
50781;SDS011;36749;37.428;-121.972;2023-08-30T08:17:56;26.30;;;8.93;;
50781;SDS011;36749;37.428;-121.972;2023-08-30T08:20:23;21.42;;;8.45;;
50781;SDS011;36749;37.428;-121.972;2023-08-30T08:22:49;28.58;;;8.70;;
50781;SDS011;36749;37.428;-121.972;2023-08-30T08:25:15;30.88;;;9.80;;
50781;SDS011;36749;37.428;-121.972;2023-08-30T08:27:42;26.65;;;8.27;;
50781;SDS011;36749;37.428;-121.972;2023-08-30T08:30:08;28.35;;;10.13;;
50781;SDS011;36749;37.428;-121.972;2023-08-30T08:32:35;24.58;;;9.25;;
50781;SDS011;36749;37.428;-121.972;2023-08-30T08:35:02;25.40;;;8.88;;
50781;SDS011;36749;37.428;-121.972;2023-08-30T08:37:28;26.23;;;9.07;;
50781;SDS011;36749;37.428;-121.972;2023-08-30T08:39:54;24.75;;;8.20;;
50781;SDS011;36749;37.428;-121.972;2023-08-30T08:42:20;28.33;;;9.27;;
50781;SDS011;36749;37.428;-121.972;2023-08-30T08:44:47;24.02;;;9.20;;
50781;SDS011;36749;37.428;-121.972;2023-08-30T08:47:19;26.00;;;10.13;;
50781;SDS011;36749;37.428;-121.972;2023-08-30T08:49:49;24.38;;;9.38;;
50781;SDS011;36749;37.428;-121.972;2023-08-30T08:52:16;28.77;;;9.10;;
50781;SDS011;36749;37.428;-121.972;2023-08-30T08:54:42;30.63;;;9.50;;
50781;SDS011;36749;37.428;-121.972;2023-08-30T08:57:09;22.15;;;8.68;;
50781;SDS011;36749;37.428;-121.972;2023-08-30T08:59:35;30.88;;;10.68;;
50781;SDS011;36749;37.428;-121.972;2023-08-30T09:02:01;29.45;;;9.73;;
50781;SDS011;36749;37.428;-121.972;2023-08-30T09:04:31;27.17;;;9.40;;
50781;SDS011;36749;37.428;-121.972;2023-08-30T09:07:00;25.45;;;9.32;;
50781;SDS011;36749;37.428;-121.972;2023-08-30T09:09:27;20.88;;;9.20;;
50781;SDS011;36749;37.428;-121.972;2023-08-30T09:11:54;23.08;;;9.30;;
50781;SDS011;36749;37.428;-121.972;2023-08-30T09:14:20;22.60;;;9.10;;
50781;SDS011;36749;37.428;-121.972;2023-08-30T09:16:56;28.00;;;9.20;;
50781;SDS011;36749;37.428;-121.972;2023-08-30T09:19:23;26.52;;;8.77;;
50781;SDS011;36749;37.428;-121.972;2023-08-30T09:21:53;28.38;;;8.88;;
50781;SDS011;36749;37.428;-121.972;2023-08-30T09:24:20;24.80;;;10.15;;
50781;SDS011;36749;37.428;-121.972;2023-08-30T09:26:47;27.60;;;9.60;;
50781;SDS011;36749;37.428;-121.972;2023-08-30T09:29:15;24.95;;;8.52;;
50781;SDS011;36749;37.428;-121.972;2023-08-30T09:31:43;20.65;;;9.07;;
50781;SDS011;36749;37.428;-121.972;2023-08-30T09:34:09;24.17;;;9.20;;
50781;SDS011;36749;37.428;-121.972;2023-08-30T09:36:39;17.80;;;7.68;;
50781;SDS011;36749;37.428;-121.972;2023-08-30T09:39:10;21.77;;;8.88;;
50781;SDS011;36749;37.428;-121.972;2023-08-30T09:41:40;25.85;;;8.40;;
50781;SDS011;36749;37.428;-121.972;2023-08-30T09:44:14;17.03;;;8.60;;
50781;SDS011;36749;37.428;-121.972;2023-08-30T09:46:43;24.20;;;8.95;;
50781;SDS011;36749;37.428;-121.972;2023-08-30T09:49:11;23.02;;;9.07;;
50781;SDS011;36749;37.428;-121.972;2023-08-30T09:51:38;19.27;;;8.40;;
50781;SDS011;36749;37.428;-121.972;2023-08-30T09:54:10;29.70;;;9.95;;
50781;SDS011;36749;37.428;-121.972;2023-08-30T09:56:41;34.65;;;9.48;;
50781;SDS011;36749;37.428;-121.972;2023-08-30T09:59:12;23.77;;;9.07;;
50781;SDS011;36749;37.428;-121.972;2023-08-30T10:01:40;24.35;;;9.20;;
50781;SDS011;36749;37.428;-121.972;2023-08-30T10:04:07;21.50;;;8.15;;
50781;SDS011;36749;37.428;-121.972;2023-08-30T10:06:35;26.08;;;8.80;;
50781;SDS011;36749;37.428;-121.972;2023-08-30T10:09:02;25.58;;;9.38;;
50781;SDS011;36749;37.428;-121.972;2023-08-30T10:11:32;27.98;;;9.45;;
50781;SDS011;36749;37.428;-121.972;2023-08-30T10:14:00;27.00;;;11.00;;
50781;SDS011;36749;37.428;-121.972;2023-08-30T10:16:26;21.20;;;8.77;;
50781;SDS011;36749;37.428;-121.972;2023-08-30T10:18:59;23.10;;;9.23;;
50781;SDS011;36749;37.428;-121.972;2023-08-30T10:21:28;25.00;;;8.90;;
50781;SDS011;36749;37.428;-121.972;2023-08-30T10:23:55;21.70;;;8.60;;
50781;SDS011;36749;37.428;-121.972;2023-08-30T10:26:26;21.90;;;8.60;;
50781;SDS011;36749;37.428;-121.972;2023-08-30T10:28:53;21.70;;;8.80;;
50781;SDS011;36749;37.428;-121.972;2023-08-30T10:31:20;20.85;;;8.65;;
50781;SDS011;36749;37.428;-121.972;2023-08-30T10:33:47;23.40;;;8.75;;
50781;SDS011;36749;37.428;-121.972;2023-08-30T10:36:22;24.23;;;8.85;;
50781;SDS011;36749;37.428;-121.972;2023-08-30T10:38:52;28.70;;;9.80;;
50781;SDS011;36749;37.428;-121.972;2023-08-30T10:41:23;28.73;;;9.40;;
50781;SDS011;36749;37.428;-121.972;2023-08-30T10:43:51;22.92;;;8.50;;
50781;SDS011;36749;37.428;-121.972;2023-08-30T10:46:28;25.17;;;8.80;;
50781;SDS011;36749;37.428;-121.972;2023-08-30T10:49:13;27.15;;;9.43;;
50781;SDS011;36749;37.428;-121.972;2023-08-30T10:51:40;21.77;;;8.18;;
50781;SDS011;36749;37.428;-121.972;2023-08-30T10:54:16;23.77;;;8.85;;
50781;SDS011;36749;37.428;-121.972;2023-08-30T10:56:46;23.27;;;9.00;;
50781;SDS011;36749;37.428;-121.972;2023-08-30T10:59:23;25.42;;;9.68;;
50781;SDS011;36749;37.428;-121.972;2023-08-30T11:01:50;24.45;;;9.65;;
50781;SDS011;36749;37.428;-121.972;2023-08-30T11:04:17;24.80;;;9.27;;
50781;SDS011;36749;37.428;-121.972;2023-08-30T11:06:44;28.70;;;8.80;;
50781;SDS011;36749;37.428;-121.972;2023-08-30T11:09:15;25.55;;;10.07;;
50781;SDS011;36749;37.428;-121.972;2023-08-30T11:11:47;24.52;;;9.80;;
50781;SDS011;36749;37.428;-121.972;2023-08-30T11:14:14;27.35;;;9.48;;
50781;SDS011;36749;37.428;-121.972;2023-08-30T11:16:41;21.38;;;9.13;;
50781;SDS011;36749;37.428;-121.972;2023-08-30T11:19:08;25.63;;;8.40;;
50781;SDS011;36749;37.428;-121.972;2023-08-30T11:21:39;20.55;;;8.70;;
50781;SDS011;36749;37.428;-121.972;2023-08-30T11:24:08;24.08;;;8.40;;
50781;SDS011;36749;37.428;-121.972;2023-08-30T11:26:35;24.00;;;9.07;;
50781;SDS011;36749;37.428;-121.972;2023-08-30T11:29:04;21.92;;;9.45;;
50781;SDS011;36749;37.428;-121.972;2023-08-30T11:31:33;20.05;;;9.18;;
50781;SDS011;36749;37.428;-121.972;2023-08-30T11:34:00;27.92;;;9.00;;
50781;SDS011;36749;37.428;-121.972;2023-08-30T11:36:30;24.58;;;9.10;;
50781;SDS011;36749;37.428;-121.972;2023-08-30T11:38:58;21.85;;;9.00;;
50781;SDS011;36749;37.428;-121.972;2023-08-30T11:41:24;22.75;;;9.18;;
50781;SDS011;36749;37.428;-121.972;2023-08-30T11:43:51;19.30;;;8.60;;
50781;SDS011;36749;37.428;-121.972;2023-08-30T11:46:18;20.63;;;8.30;;
50781;SDS011;36749;37.428;-121.972;2023-08-30T11:48:45;20.02;;;8.82;;
50781;SDS011;36749;37.428;-121.972;2023-08-30T11:51:12;22.95;;;8.43;;
50781;SDS011;36749;37.428;-121.972;2023-08-30T11:53:39;22.20;;;8.40;;
50781;SDS011;36749;37.428;-121.972;2023-08-30T11:56:06;20.90;;;9.15;;
50781;SDS011;36749;37.428;-121.972;2023-08-30T11:58:33;21.95;;;8.15;;
50781;SDS011;36749;37.428;-121.972;2023-08-30T12:01:00;21.20;;;8.85;;
50781;SDS011;36749;37.428;-121.972;2023-08-30T12:03:27;23.92;;;9.63;;
50781;SDS011;36749;37.428;-121.972;2023-08-30T12:05:56;20.20;;;8.63;;
50781;SDS011;36749;37.428;-121.972;2023-08-30T12:08:24;21.25;;;8.57;;
50781;SDS011;36749;37.428;-121.972;2023-08-30T12:10:52;24.77;;;9.38;;
50781;SDS011;36749;37.428;-121.972;2023-08-30T12:13:19;21.02;;;8.32;;
50781;SDS011;36749;37.428;-121.972;2023-08-30T12:15:52;19.08;;;9.00;;
50781;SDS011;36749;37.428;-121.972;2023-08-30T12:21:00;20.73;;;8.90;;
50781;SDS011;36749;37.428;-121.972;2023-08-30T12:23:27;22.08;;;8.27;;
50781;SDS011;36749;37.428;-121.972;2023-08-30T12:26:02;22.75;;;9.30;;
50781;SDS011;36749;37.428;-121.972;2023-08-30T12:28:29;23.63;;;8.43;;
50781;SDS011;36749;37.428;-121.972;2023-08-30T12:30:57;27.13;;;9.73;;
50781;SDS011;36749;37.428;-121.972;2023-08-30T12:33:24;22.42;;;8.40;;
50781;SDS011;36749;37.428;-121.972;2023-08-30T12:35:57;18.92;;;8.75;;
50781;SDS011;36749;37.428;-121.972;2023-08-30T12:38:24;20.13;;;8.93;;
50781;SDS011;36749;37.428;-121.972;2023-08-30T12:40:51;22.45;;;9.65;;
50781;SDS011;36749;37.428;-121.972;2023-08-30T12:43:18;21.80;;;9.13;;
50781;SDS011;36749;37.428;-121.972;2023-08-30T12:45:45;17.88;;;8.48;;
50781;SDS011;36749;37.428;-121.972;2023-08-30T12:48:12;19.17;;;7.97;;
50781;SDS011;36749;37.428;-121.972;2023-08-30T12:50:47;22.10;;;9.15;;
50781;SDS011;36749;37.428;-121.972;2023-08-30T12:53:13;23.50;;;8.70;;
50781;SDS011;36749;37.428;-121.972;2023-08-30T12:55:43;19.27;;;8.57;;
50781;SDS011;36749;37.428;-121.972;2023-08-30T12:58:09;21.33;;;9.52;;
50781;SDS011;36749;37.428;-121.972;2023-08-30T13:00:37;21.27;;;9.02;;
50781;SDS011;36749;37.428;-121.972;2023-08-30T13:03:03;16.80;;;8.02;;
50781;SDS011;36749;37.428;-121.972;2023-08-30T13:05:29;20.52;;;8.57;;
50781;SDS011;36749;37.428;-121.972;2023-08-30T13:07:57;24.02;;;9.95;;
50781;SDS011;36749;37.428;-121.972;2023-08-30T13:10:24;17.73;;;7.70;;
50781;SDS011;36749;37.428;-121.972;2023-08-30T13:12:50;23.27;;;9.02;;
50781;SDS011;36749;37.428;-121.972;2023-08-30T13:15:17;26.08;;;9.32;;
50781;SDS011;36749;37.428;-121.972;2023-08-30T13:17:43;19.20;;;8.02;;
50781;SDS011;36749;37.428;-121.972;2023-08-30T13:20:09;21.52;;;9.00;;
50781;SDS011;36749;37.428;-121.972;2023-08-30T13:22:36;20.90;;;8.77;;
50781;SDS011;36749;37.428;-121.972;2023-08-30T13:25:02;16.38;;;8.38;;
50781;SDS011;36749;37.428;-121.972;2023-08-30T13:27:29;21.63;;;9.07;;
50781;SDS011;36749;37.428;-121.972;2023-08-30T13:29:56;23.23;;;8.73;;
50781;SDS011;36749;37.428;-121.972;2023-08-30T13:32:22;19.33;;;8.90;;
50781;SDS011;36749;37.428;-121.972;2023-08-30T13:34:49;20.20;;;8.63;;
50781;SDS011;36749;37.428;-121.972;2023-08-30T13:37:16;20.58;;;9.55;;
50781;SDS011;36749;37.428;-121.972;2023-08-30T13:39:43;25.50;;;9.18;;
50781;SDS011;36749;37.428;-121.972;2023-08-30T13:42:09;24.50;;;8.85;;
50781;SDS011;36749;37.428;-121.972;2023-08-30T13:44:36;19.58;;;8.63;;
50781;SDS011;36749;37.428;-121.972;2023-08-30T13:47:05;18.10;;;8.10;;
50781;SDS011;36749;37.428;-121.972;2023-08-30T13:49:32;19.08;;;8.85;;
50781;SDS011;36749;37.428;-121.972;2023-08-30T13:51:58;21.67;;;8.63;;
50781;SDS011;36749;37.428;-121.972;2023-08-30T13:54:24;19.75;;;8.68;;
50781;SDS011;36749;37.428;-121.972;2023-08-30T13:56:51;24.90;;;10.15;;
50781;SDS011;36749;37.428;-121.972;2023-08-30T13:59:17;18.30;;;8.30;;
50781;SDS011;36749;37.428;-121.972;2023-08-30T14:01:44;16.50;;;7.70;;
50781;SDS011;36749;37.428;-121.972;2023-08-30T14:04:10;22.17;;;9.23;;
50781;SDS011;36749;37.428;-121.972;2023-08-30T14:06:36;16.98;;;8.85;;
50781;SDS011;36749;37.428;-121.972;2023-08-30T14:09:02;21.05;;;8.52;;
50781;SDS011;36749;37.428;-121.972;2023-08-30T14:11:36;15.75;;;7.72;;